Kabwe, Zambia
Current Conditions -  °F | °C
As of 10:00 AM on Sunday 23 Nov 2014 (Local Time) from FVHA Reporting Station
Clear Clear  
Wind Chill: 79°   Ceiling: Unl
Heat Index: 79°   Visibility: 6mi
Dew Point: 39°   Wind: 17mph
Humidity: 24%   Direction: 80°E
Pressure: 30.24"   Gusts: NA
Location:  14.44°S, 28.45°E
Report Text: FVHA 230800Z 08015KT 040V100 CAVOK 26/04 Q1024 NOSIG RMK QFE 855.9
Loading
Personal Weather Stations






























Interactive Weather Map New forecast layout! Learn more

10-Day Weather Forecast

Advertisements
Track Severe Weather on mobile